Time;durP1;ratioP1;P1;durP2;ratioP2;P2;SDS_P1;SDS_P2;PMS_P1;PMS_P2;Temp;Humidity;BMP_temperature;BMP_pressure;BME280_temperature;BME280_humidity;BME280_pressure;Samples;Min_cycle;Max_cycle;Signal;HPM_P1;HPM_P2
2023/02/03 00:02:00;;;;;;;1.60;1.20;;;9.00;98.20;;;;;;5057461;28;21047;-73
2023/02/03 00:04:27;;;;;;;1.60;1.20;;;9.00;98.20;;;;;;5074336;28;20497;-73
2023/02/03 00:06:54;;;;;;;1.60;1.20;;;9.00;98.20;;;;;;5057178;28;20510;-74
2023/02/03 00:09:21;;;;;;;1.60;1.10;;;9.00;98.20;;;;;;5069191;28;20457;-74
2023/02/03 00:11:48;;;;;;;2.43;2.23;;;9.00;98.20;;;;;;5065987;28;20491;-74
2023/02/03 00:14:16;;;;;;;1.60;1.10;;;9.00;98.20;;;;;;5073822;28;20573;-74
2023/02/03 00:16:43;;;;;;;1.60;1.30;;;9.00;98.20;;;;;;5062011;28;20468;-74
2023/02/03 00:19:11;;;;;;;1.60;1.20;;;9.00;98.20;;;;;;5072096;28;20485;-76
2023/02/03 00:21:38;;;;;;;1.60;1.10;;;9.00;98.20;;;;;;5068942;28;20496;-74
2023/02/03 00:24:06;;;;;;;1.60;1.20;;;9.00;98.20;;;;;;5071861;28;20457;-75
2023/02/03 00:26:33;;;;;;;1.60;1.20;;;9.00;98.20;;;;;;5061027;28;20498;-74
2023/02/03 00:29:00;;;;;;;1.60;1.20;;;9.00;98.20;;;;;;5068456;28;20466;-75
2023/02/03 00:31:26;;;;;;;1.60;1.10;;;9.10;98.20;;;;;;5064016;28;20545;-74
2023/02/03 00:33:55;;;;;;;1.60;1.13;;;9.10;98.20;;;;;;5067188;28;20482;-77
2023/02/03 00:36:24;;;;;;;1.60;1.20;;;9.10;98.20;;;;;;5054457;28;20525;-75
2023/02/03 00:38:51;;;;;;;1.70;1.40;;;9.10;98.20;;;;;;5071821;28;20465;-73
2023/02/03 00:41:19;;;;;;;1.60;1.20;;;9.00;98.20;;;;;;5057190;28;20522;-73
2023/02/03 00:43:46;;;;;;;1.60;1.10;;;9.10;98.20;;;;;;5062224;28;21006;-73
2023/02/03 00:46:12;;;;;;;1.60;1.10;;;9.10;98.20;;;;;;5060818;28;20466;-74
2023/02/03 00:48:39;;;;;;;1.60;1.20;;;9.10;98.20;;;;;;5072743;28;20466;-74
2023/02/03 00:51:07;;;;;;;1.60;1.10;;;9.10;98.20;;;;;;5062041;28;20512;-74
2023/02/03 00:53:35;;;;;;;1.60;1.27;;;9.10;98.20;;;;;;5072042;28;20864;-73
2023/02/03 00:56:02;;;;;;;1.60;1.20;;;9.10;98.20;;;;;;5054241;28;20562;-74
2023/02/03 00:58:29;;;;;;;1.60;1.20;;;9.10;98.20;;;;;;5074294;28;20540;-73
2023/02/03 01:00:56;;;;;;;1.63;1.13;;;9.10;98.20;;;;;;5058673;28;20466;-74
2023/02/03 01:03:23;;;;;;;1.60;1.20;;;9.10;98.20;;;;;;5072347;28;20457;-75
2023/02/03 01:05:50;;;;;;;1.60;1.10;;;9.10;98.20;;;;;;5058284;28;20465;-74
2023/02/03 01:08:17;;;;;;;1.60;1.10;;;9.10;98.20;;;;;;5082118;28;20519;-75
2023/02/03 01:10:45;;;;;;;1.60;1.20;;;9.10;98.20;;;;;;5060390;28;20512;-75
2023/02/03 01:13:12;;;;;;;1.60;1.10;;;9.00;98.20;;;;;;5061119;28;20509;-75
2023/02/03 01:15:45;;;;;;;1.60;1.20;;;9.00;98.20;;;;;;5063651;28;20489;-75
2023/02/03 01:18:13;;;;;;;1.70;1.30;;;9.00;98.20;;;;;;5074173;28;20815;-75
2023/02/03 01:20:40;;;;;;;1.60;1.10;;;9.10;98.20;;;;;;5068096;28;20989;-74
2023/02/03 01:23:06;;;;;;;1.60;1.20;;;9.10;98.20;;;;;;5076482;28;20468;-75
2023/02/03 01:25:35;;;;;;;1.60;1.20;;;9.10;98.20;;;;;;5065382;28;20860;-75
2023/02/03 01:28:04;;;;;;;1.60;1.30;;;9.10;98.20;;;;;;5059800;28;20508;-75
2023/02/03 01:30:31;;;;;;;1.63;1.20;;;9.10;98.20;;;;;;5060965;28;20481;-74
2023/02/03 01:32:58;;;;;;;1.60;1.30;;;9.10;98.20;;;;;;5070826;28;20484;-75
2023/02/03 01:35:25;;;;;;;1.60;1.20;;;9.10;98.20;;;;;;5059519;28;20744;-74
2023/02/03 01:37:52;;;;;;;1.60;1.20;;;9.10;98.20;;;;;;5063003;28;20481;-73
2023/02/03 01:40:19;;;;;;;1.60;1.10;;;9.10;98.20;;;;;;5062459;28;20476;-73
2023/02/03 01:42:46;;;;;;;1.60;1.27;;;9.10;98.20;;;;;;5059968;28;20482;-74
2023/02/03 01:45:15;;;;;;;1.60;1.20;;;9.10;98.20;;;;;;5064595;28;20667;-74
2023/02/03 01:47:46;;;;;;;1.60;1.10;;;9.10;98.20;;;;;;5052730;28;20486;-74
2023/02/03 01:50:16;;;;;;;1.60;1.10;;;9.10;98.20;;;;;;5064091;28;20457;-74
2023/02/03 01:52:46;;;;;;;1.63;1.33;;;9.10;98.20;;;;;;5067603;28;20491;-74
2023/02/03 01:55:19;;;;;;;1.60;1.20;;;9.10;98.20;;;;;;5064013;28;20449;-75
2023/02/03 01:57:50;;;;;;;1.60;1.20;;;9.10;98.20;;;;;;5070337;28;21084;-75
2023/02/03 02:00:20;;;;;;;1.60;1.17;;;9.10;98.20;;;;;;5055029;28;20458;-74
2023/02/03 02:02:48;;;;;;;1.60;1.10;;;9.10;98.20;;;;;;5060518;28;21042;-73
2023/02/03 02:05:23;;;;;;;1.60;1.20;;;9.10;98.20;;;;;;5064358;28;20460;-74
2023/02/03 02:07:50;;;;;;;1.60;1.10;;;9.10;98.20;;;;;;5074826;28;20476;-75
2023/02/03 02:10:18;;;;;;;1.60;1.10;;;9.10;98.20;;;;;;5066764;28;20461;-76
2023/02/03 02:12:45;;;;;;;1.60;1.20;;;9.10;98.20;;;;;;5068722;28;20484;-73
2023/02/03 02:15:12;;;;;;;1.60;1.10;;;9.10;98.20;;;;;;5071846;28;20464;-74
2023/02/03 02:18:19;;;;;;;1.60;1.20;;;9.10;98.20;;;;;;5054359;28;20489;-74
2023/02/03 02:21:22;;;;;;;1.60;1.10;;;9.10;98.20;;;;;;5065671;28;20477;-75
2023/02/03 02:24:15;;;;;;;1.60;1.13;;;9.10;98.20;;;;;;5041714;28;20468;-74
2023/02/03 02:27:07;;;;;;;1.60;1.10;;;9.10;98.20;;;;;;5062354;28;20472;-74
2023/02/03 02:30:09;;;;;;;1.60;1.20;;;9.10;98.20;;;;;;5061600;28;21038;-74
2023/02/03 02:33:01;;;;;;;1.60;1.20;;;9.10;98.20;;;;;;5047220;28;20486;-73
2023/02/03 02:35:42;;;;;;;1.60;1.20;;;9.10;98.20;;;;;;5063741;28;20454;-74
2023/02/03 02:38:19;;;;;;;1.60;1.10;;;9.10;98.20;;;;;;5069976;28;20482;-73
2023/02/03 02:40:52;;;;;;;1.60;1.20;;;9.10;98.20;;;;;;5065691;28;20467;-73
2023/02/03 02:43:26;;;;;;;1.60;1.20;;;9.10;98.20;;;;;;5060465;28;20473;-73
2023/02/03 02:45:56;;;;;;;1.60;1.10;;;9.10;98.20;;;;;;5056551;28;20510;-74
2023/02/03 02:48:32;;;;;;;1.60;1.17;;;9.10;98.20;;;;;;5068926;28;20552;-73
2023/02/03 02:51:02;;;;;;;1.60;1.17;;;9.10;98.20;;;;;;5041569;28;20493;-73
2023/02/03 02:53:34;;;;;;;1.60;1.20;;;9.10;98.20;;;;;;5075541;28;20490;-73
2023/02/03 02:56:05;;;;;;;1.60;1.20;;;9.10;98.20;;;;;;5059117;28;20457;-74
2023/02/03 02:58:35;;;;;;;1.60;1.20;;;9.10;98.20;;;;;;5079962;28;20485;-73
2023/02/03 03:01:03;;;;;;;1.60;1.20;;;9.10;98.20;;;;;;5056484;28;20481;-73
2023/02/03 03:03:31;;;;;;;1.60;1.10;;;9.10;98.20;;;;;;5074097;28;20843;-73
2023/02/03 03:06:02;;;;;;;1.60;1.10;;;9.10;98.20;;;;;;5057233;28;21139;-73
2023/02/03 03:08:34;;;;;;;1.60;1.10;;;9.10;98.20;;;;;;5074176;28;20462;-73
2023/02/03 03:11:03;;;;;;;1.60;1.30;;;9.10;98.20;;;;;;5047124;28;20473;-73
2023/02/03 03:13:34;;;;;;;1.60;1.20;;;9.10;98.20;;;;;;5077110;28;20516;-73
2023/02/03 03:16:03;;;;;;;1.60;1.20;;;9.10;98.20;;;;;;5055844;28;20561;-73
2023/02/03 03:18:36;;;;;;;1.60;1.20;;;9.10;98.20;;;;;;5074168;28;20961;-73
2023/02/03 03:21:05;;;;;;;1.60;1.10;;;9.10;98.20;;;;;;5057968;28;20482;-73
2023/02/03 03:23:38;;;;;;;1.60;1.20;;;9.00;98.20;;;;;;5072757;28;20865;-73
2023/02/03 03:26:11;;;;;;;1.60;1.30;;;9.10;98.20;;;;;;5060138;28;20494;-73
2023/02/03 03:28:45;;;;;;;1.60;1.20;;;9.10;98.20;;;;;;5076357;28;20461;-74
2023/02/03 03:31:12;;;;;;;1.60;1.30;;;9.10;98.20;;;;;;5062362;28;20523;-73
2023/02/03 03:33:40;;;;;;;1.60;1.30;;;9.10;98.20;;;;;;5076323;28;20572;-74
2023/02/03 03:36:14;;;;;;;1.60;1.20;;;9.10;98.20;;;;;;5067937;28;20779;-74
2023/02/03 03:38:46;;;;;;;1.60;1.20;;;9.10;98.20;;;;;;5070327;28;20858;-73
2023/02/03 03:41:20;;;;;;;1.60;1.10;;;9.10;98.20;;;;;;5054246;28;20481;-73
2023/02/03 03:43:48;;;;;;;1.60;1.10;;;9.10;98.20;;;;;;5080327;28;20567;-73
2023/02/03 03:46:20;;;;;;;1.60;1.30;;;9.10;98.20;;;;;;5055999;28;20482;-73
2023/02/03 03:48:53;;;;;;;1.60;1.23;;;9.10;98.20;;;;;;5076213;28;20465;-73
2023/02/03 03:51:25;;;;;;;1.60;1.10;;;9.10;98.20;;;;;;5061045;28;20497;-73
2023/02/03 03:53:56;;;;;;;1.60;1.10;;;9.10;98.20;;;;;;5067455;28;20699;-74
2023/02/03 03:56:29;;;;;;;1.60;1.20;;;9.10;98.20;;;;;;5061364;28;20504;-73
2023/02/03 03:58:59;;;;;;;1.60;1.27;;;9.10;98.20;;;;;;5066480;28;20454;-73
2023/02/03 04:01:27;;;;;;;1.60;1.20;;;9.10;98.20;;;;;;5068491;28;20576;-73
2023/02/03 04:03:59;;;;;;;1.60;1.20;;;9.10;98.20;;;;;;5075810;28;20492;-73
2023/02/03 04:06:26;;;;;;;1.60;1.20;;;9.10;98.20;;;;;;5061060;28;20494;-73
2023/02/03 04:08:53;;;;;;;1.70;1.50;;;9.10;98.20;;;;;;5077624;28;20458;-73
2023/02/03 04:14:00;;;;;;;1.60;1.20;;;9.10;98.20;;;;;;5066814;28;20534;-74
2023/02/03 04:16:27;;;;;;;1.60;1.10;;;9.10;98.20;;;;;;5061589;28;20492;-73
2023/02/03 04:18:56;;;;;;;1.60;1.10;;;9.10;98.20;;;;;;5072416;28;20469;-73
2023/02/03 04:21:25;;;;;;;1.60;1.13;;;9.10;98.20;;;;;;5066337;28;20518;-74
2023/02/03 04:23:52;;;;;;;1.60;1.20;;;9.10;98.20;;;;;;5072099;28;20457;-76
2023/02/03 04:26:19;;;;;;;1.60;1.20;;;9.10;98.20;;;;;;5059104;28;20495;-74
2023/02/03 04:28:46;;;;;;;1.60;1.30;;;9.10;98.20;;;;;;5070829;28;20526;-77
2023/02/03 04:31:13;;;;;;;1.60;1.10;;;9.10;98.20;;;;;;5069850;28;20471;-76
2023/02/03 04:33:40;;;;;;;1.60;1.20;;;9.10;98.20;;;;;;5081584;28;20488;-74
2023/02/03 04:36:09;;;;;;;1.60;1.20;;;9.10;98.20;;;;;;5064066;28;21037;-75
2023/02/03 04:38:36;;;;;;;1.60;1.30;;;9.10;98.20;;;;;;5077223;28;20465;-78
2023/02/03 04:41:03;;;;;;;1.60;1.10;;;9.10;98.20;;;;;;5048748;28;22412;-75
2023/02/03 04:43:30;;;;;;;1.60;1.20;;;9.10;98.20;;;;;;5075317;28;20553;-75
2023/02/03 04:45:59;;;;;;;1.60;1.20;;;9.10;98.20;;;;;;5058771;28;20458;-74
2023/02/03 04:48:27;;;;;;;1.60;1.10;;;9.10;98.20;;;;;;5073298;28;20962;-75
2023/02/03 04:50:53;;;;;;;1.60;1.10;;;9.20;98.20;;;;;;5061012;28;20497;-77
2023/02/03 04:53:22;;;;;;;1.60;1.30;;;9.20;98.20;;;;;;5069550;28;21044;-75
2023/02/03 04:55:49;;;;;;;1.60;1.10;;;9.20;98.20;;;;;;5053689;28;20492;-77
2023/02/03 04:58:16;;;;;;;1.60;1.20;;;9.20;98.20;;;;;;5073855;28;20470;-76
2023/02/03 05:00:43;;;;;;;1.60;1.10;;;9.20;98.20;;;;;;5070403;28;20671;-75
2023/02/03 05:03:10;;;;;;;1.60;1.20;;;9.10;98.20;;;;;;5077704;28;20488;-74
2023/02/03 05:05:37;;;;;;;1.60;1.20;;;9.10;98.20;;;;;;5067573;28;20833;-75
2023/02/03 05:08:04;;;;;;;1.60;1.10;;;9.10;98.20;;;;;;5065750;28;20485;-73
2023/02/03 05:10:33;;;;;;;1.60;1.20;;;9.10;98.20;;;;;;5075242;28;20465;-74
2023/02/03 05:13:00;;;;;;;1.60;1.20;;;9.10;98.20;;;;;;5055081;28;20986;-75
2023/02/03 05:15:27;;;;;;;1.60;1.10;;;9.10;98.20;;;;;;5063608;28;21065;-75
2023/02/03 05:17:54;;;;;;;1.60;1.20;;;9.10;98.20;;;;;;5065176;28;21005;-75
2023/02/03 05:20:22;;;;;;;1.60;1.27;;;9.10;98.20;;;;;;5069097;28;20462;-75
2023/02/03 05:22:48;;;;;;;1.60;1.20;;;9.10;98.20;;;;;;5075626;28;20629;-73
2023/02/03 05:25:16;;;;;;;1.60;1.20;;;9.10;98.20;;;;;;5060589;28;20464;-75
2023/02/03 05:27:44;;;;;;;1.60;1.10;;;9.10;98.20;;;;;;5067652;28;20580;-74
2023/02/03 05:30:12;;;;;;;1.60;1.10;;;9.10;98.20;;;;;;5061782;28;20744;-75
2023/02/03 05:32:39;;;;;;;1.60;1.10;;;9.10;98.20;;;;;;5062518;28;20973;-75
2023/02/03 05:35:07;;;;;;;1.60;1.10;;;9.10;98.20;;;;;;5057062;28;20573;-74
2023/02/03 05:37:34;;;;;;;1.60;1.20;;;9.20;98.20;;;;;;5065400;28;20545;-74
2023/02/03 05:42:48;;;;;;;1.60;1.30;;;9.10;98.20;;;;;;5057950;28;20792;-74
2023/02/03 05:45:15;;;;;;;1.60;1.20;;;9.10;98.20;;;;;;5057365;28;20455;-72
2023/02/03 05:47:42;;;;;;;1.60;1.20;;;9.20;98.20;;;;;;5059640;28;20477;-74
2023/02/03 05:50:09;;;;;;;1.60;1.10;;;9.10;98.20;;;;;;5063492;28;20486;-73
2023/02/03 05:52:36;;;;;;;1.60;1.10;;;9.20;98.20;;;;;;5060296;28;20569;-74
2023/02/03 05:55:03;;;;;;;1.60;1.20;;;9.20;98.20;;;;;;5055012;28;21597;-72
2023/02/03 05:57:30;;;;;;;1.60;1.20;;;9.10;98.20;;;;;;5070868;28;20581;-72
2023/02/03 05:59:59;;;;;;;1.60;1.10;;;9.20;98.20;;;;;;5065559;28;20462;-73
2023/02/03 06:02:26;;;;;;;1.60;1.23;;;9.20;98.20;;;;;;5063502;28;20487;-72
2023/02/03 06:04:53;;;;;;;1.60;1.10;;;9.10;98.20;;;;;;5067699;28;20557;-72
2023/02/03 06:07:21;;;;;;;1.60;1.37;;;9.10;98.20;;;;;;5065737;28;20473;-72
2023/02/03 06:10:03;;;;;;;1.60;1.10;;;9.10;98.20;;;;;;5070434;28;20999;-72
2023/02/03 06:12:38;;;;;;;1.60;1.10;;;9.10;98.20;;;;;;5059192;28;20497;-73
2023/02/03 06:15:10;;;;;;;1.60;1.10;;;9.10;98.20;;;;;;5065349;28;20563;-73
2023/02/03 06:17:52;;;;;;;1.60;1.10;;;9.10;98.20;;;;;;5069843;28;20501;-73
2023/02/03 06:22:48;;;;;;;1.60;1.10;;;9.10;98.20;;;;;;5039930;28;20478;-72
2023/02/03 06:25:15;;;;;;;1.60;1.13;;;9.10;98.20;;;;;;5042410;28;20986;-72
2023/02/03 06:27:43;;;;;;;1.70;1.30;;;9.10;98.20;;;;;;5025345;28;20838;-72
2023/02/03 06:30:13;;;;;;;1.60;1.20;;;9.10;98.20;;;;;;5041421;28;20462;-71
2023/02/03 06:32:40;;;;;;;1.60;1.10;;;9.10;98.20;;;;;;5028113;28;20514;-74
2023/02/03 06:35:09;;;;;;;1.60;1.10;;;9.10;98.20;;;;;;5035447;28;20483;-73
2023/02/03 06:37:42;;;;;;;1.60;1.20;;;9.10;98.20;;;;;;5026218;28;21080;-73
2023/02/03 06:40:11;;;;;;;1.60;1.10;;;9.10;98.20;;;;;;5035037;28;20475;-72
2023/02/03 06:42:38;;;;;;;1.60;1.20;;;9.10;98.20;;;;;;5032734;28;20569;-73
2023/02/03 06:45:11;;;;;;;1.60;1.20;;;9.10;98.20;;;;;;5038788;28;20842;-72
2023/02/03 06:47:40;;;;;;;1.60;1.10;;;9.10;98.20;;;;;;5031731;28;20959;-72
2023/02/03 06:50:09;;;;;;;1.60;1.13;;;9.10;98.20;;;;;;5040043;28;20457;-72
2023/02/03 06:52:39;;;;;;;1.60;1.10;;;9.10;98.20;;;;;;5025377;28;20487;-73
2023/02/03 06:55:08;;;;;;;1.60;1.20;;;9.10;98.20;;;;;;5037420;28;20487;-73
2023/02/03 06:57:35;;;;;;;1.60;1.10;;;9.10;98.20;;;;;;5025520;28;20523;-74
2023/02/03 07:00:03;;;;;;;1.60;1.10;;;9.10;98.20;;;;;;5034285;28;20467;-72
2023/02/03 07:02:33;;;;;;;1.60;1.30;;;9.10;98.20;;;;;;5036823;28;20569;-72
2023/02/03 07:05:00;;;;;;;1.60;1.27;;;9.10;98.20;;;;;;5036444;28;20459;-72
2023/02/03 07:07:29;;;;;;;1.60;1.20;;;9.10;98.20;;;;;;5022822;28;20492;-74
2023/02/03 07:09:57;;;;;;;1.60;1.10;;;9.20;98.20;;;;;;5040182;28;20466;-73
2023/02/03 07:12:24;;;;;;;1.60;1.20;;;9.20;98.20;;;;;;5042246;28;20486;-73
2023/02/03 07:14:51;;;;;;;1.60;1.20;;;9.20;98.20;;;;;;5046205;28;20577;-73
2023/02/03 07:17:18;;;;;;;1.60;1.20;;;9.20;98.20;;;;;;5041538;28;20482;-73
2023/02/03 07:19:47;;;;;;;1.60;1.10;;;9.20;98.20;;;;;;5037586;28;20451;-72
2023/02/03 07:22:14;;;;;;;1.60;1.10;;;9.20;98.20;;;;;;5041186;28;20502;-73
2023/02/03 07:24:42;;;;;;;1.60;1.20;;;9.20;98.20;;;;;;5046624;28;20943;-73
2023/02/03 07:27:09;;;;;;;1.60;1.20;;;9.20;98.20;;;;;;5048770;23;20871;-73
2023/02/03 07:29:37;;;;;;;1.60;1.10;;;9.20;98.20;;;;;;5078915;28;20453;-73
2023/02/03 07:32:04;;;;;;;1.60;1.20;;;9.20;98.20;;;;;;5071788;28;21510;-73
2023/02/03 07:34:31;;;;;;;1.60;1.20;;;9.20;98.20;;;;;;5085202;28;20464;-72
2023/02/03 07:37:00;;;;;;;1.60;1.10;;;9.20;98.20;;;;;;5072272;28;20484;-73
2023/02/03 07:39:28;;;;;;;1.60;1.10;;;9.30;98.20;;;;;;5084835;28;20468;-73
2023/02/03 07:41:55;;;;;;;1.60;1.17;;;9.30;98.20;;;;;;5063552;28;20557;-73
2023/02/03 07:44:22;;;;;;;1.60;1.10;;;9.30;98.20;;;;;;5084571;28;21011;-73
2023/02/03 07:46:50;;;;;;;1.60;1.20;;;9.30;98.20;;;;;;5065828;28;20923;-74
2023/02/03 07:49:17;;;;;;;1.60;1.20;;;9.30;98.20;;;;;;5084763;28;20457;-73
2023/02/03 07:51:44;;;;;;;1.60;1.20;;;9.30;98.20;;;;;;5072683;28;20568;-73
2023/02/03 07:54:14;;;;;;;1.60;1.23;;;9.30;98.20;;;;;;5083475;28;20518;-73
2023/02/03 07:56:42;;;;;;;1.60;1.10;;;9.30;98.20;;;;;;5067845;28;20543;-74
2023/02/03 07:59:09;;;;;;;1.60;1.20;;;9.30;98.20;;;;;;5081423;28;20456;-72
2023/02/03 08:01:36;;;;;;;1.60;1.10;;;9.30;98.20;;;;;;5078174;28;20500;-72
2023/02/03 08:04:04;;;;;;;1.63;1.30;;;9.30;98.20;;;;;;5096388;28;21523;-73
2023/02/03 08:06:31;;;;;;;1.60;1.27;;;9.30;98.20;;;;;;5077146;28;20890;-73
2023/02/03 08:08:59;;;;;;;1.60;1.10;;;9.30;98.20;;;;;;5088026;28;20541;-73
2023/02/03 08:11:27;;;;;;;1.60;1.20;;;9.30;98.20;;;;;;5077614;28;20503;-73
2023/02/03 08:13:55;;;;;;;1.60;1.10;;;9.30;98.20;;;;;;5085924;28;21023;-72
2023/02/03 08:16:22;;;;;;;1.60;1.10;;;9.30;98.20;;;;;;5076779;28;20528;-72
2023/02/03 08:18:49;;;;;;;1.60;1.20;;;9.30;98.20;;;;;;5079793;28;20467;-73
2023/02/03 08:21:16;;;;;;;1.60;1.10;;;9.30;98.20;;;;;;5078083;28;21064;-73
2023/02/03 08:23:43;;;;;;;1.60;1.10;;;9.40;98.20;;;;;;5087962;28;20456;-73
2023/02/03 08:26:11;;;;;;;1.60;1.10;;;9.40;98.20;;;;;;5068659;28;20563;-72
2023/02/03 08:28:39;;;;;;;1.60;1.10;;;9.40;98.20;;;;;;5087386;28;20980;-72
2023/02/03 08:31:10;;;;;;;1.60;1.10;;;9.40;98.20;;;;;;5076795;28;20476;-72
2023/02/03 08:33:38;;;;;;;1.60;1.10;;;9.40;98.20;;;;;;5088760;28;20460;-73
2023/02/03 08:36:06;;;;;;;1.60;1.20;;;9.40;98.20;;;;;;5077048;28;20491;-72
2023/02/03 08:38:34;;;;;;;1.60;1.20;;;9.40;98.20;;;;;;5087695;28;20465;-72
2023/02/03 08:41:02;;;;;;;1.60;1.10;;;9.40;98.20;;;;;;5075739;28;20467;-73
2023/02/03 08:43:29;;;;;;;1.60;1.10;;;9.40;98.20;;;;;;5079214;28;20461;-72
2023/02/03 08:46:02;;;;;;;1.60;1.23;;;9.40;98.20;;;;;;5075616;28;20460;-72
2023/02/03 08:48:29;;;;;;;1.60;1.20;;;9.40;98.20;;;;;;5076136;28;20465;-72
2023/02/03 08:50:57;;;;;;;1.60;1.10;;;9.40;98.20;;;;;;5074637;28;20465;-72
2023/02/03 08:53:24;;;;;;;1.60;1.20;;;9.40;98.20;;;;;;5082168;28;20956;-73
2023/02/03 08:55:51;;;;;;;1.60;1.10;;;9.40;98.20;;;;;;5077259;28;20487;-73
2023/02/03 08:58:19;;;;;;;1.60;1.17;;;9.40;98.20;;;;;;5085429;28;20953;-73
2023/02/03 09:00:48;;;;;;;1.60;1.10;;;9.40;98.20;;;;;;5087523;28;20457;-72
2023/02/03 09:03:17;;;;;;;1.60;1.17;;;9.40;98.20;;;;;;5051973;28;20500;-73
2023/02/03 09:05:44;;;;;;;1.60;1.10;;;9.40;98.20;;;;;;5087789;28;20461;-73
2023/02/03 09:08:11;;;;;;;1.60;1.10;;;9.50;98.20;;;;;;5073587;28;20476;-73
2023/02/03 09:10:38;;;;;;;1.70;1.40;;;9.50;98.20;;;;;;5087813;28;20456;-73
2023/02/03 09:13:06;;;;;;;1.60;1.20;;;9.50;98.20;;;;;;5066940;28;21005;-73
2023/02/03 09:15:33;;;;;;;1.60;1.20;;;9.50;98.20;;;;;;5088293;28;21110;-73
2023/02/03 09:18:01;;;;;;;1.60;1.20;;;9.50;98.20;;;;;;5065717;28;20572;-73
2023/02/03 09:20:29;;;;;;;1.60;1.10;;;9.50;98.20;;;;;;5082149;28;20976;-73
2023/02/03 09:22:59;;;;;;;1.60;1.30;;;9.50;98.20;;;;;;5075975;28;20530;-73
2023/02/03 09:25:26;;;;;;;1.60;1.10;;;9.50;98.20;;;;;;5088081;28;20460;-73
2023/02/03 09:27:54;;;;;;;1.60;1.20;;;9.50;98.20;;;;;;5072990;28;21007;-73
2023/02/03 09:30:21;;;;;;;1.60;1.20;;;9.50;98.20;;;;;;5088123;28;20803;-73
2023/02/03 09:32:52;;;;;;;1.60;1.20;;;9.50;98.20;;;;;;5068418;28;21004;-73
2023/02/03 09:35:20;;;;;;;1.60;1.17;;;9.50;98.20;;;;;;5084920;28;20485;-73
2023/02/03 09:37:48;;;;;;;1.60;1.10;;;9.50;98.20;;;;;;5073683;28;20518;-73
2023/02/03 09:40:22;;;;;;;1.60;1.10;;;9.50;98.20;;;;;;5087550;28;21091;-73
2023/02/03 09:43:02;;;;;;;1.60;1.20;;;9.50;98.20;;;;;;5074407;28;20495;-73
2023/02/03 09:45:32;;;;;;;1.60;1.20;;;9.50;98.20;;;;;;5087936;28;20514;-73
2023/02/03 09:48:06;;;;;;;1.60;1.10;;;9.50;98.20;;;;;;5073851;28;21023;-73
2023/02/03 09:50:35;;;;;;;1.60;1.10;;;9.50;98.20;;;;;;5086919;28;20501;-73
2023/02/03 09:53:12;;;;;;;1.60;1.20;;;9.50;98.20;;;;;;5075179;28;20557;-73
2023/02/03 09:55:43;;;;;;;1.60;1.10;;;9.50;98.20;;;;;;5087589;28;20565;-73
2023/02/03 09:58:13;;;;;;;1.60;1.30;;;9.50;98.20;;;;;;5065356;28;20708;-73
2023/02/03 10:00:44;;;;;;;1.60;1.10;;;9.50;98.20;;;;;;5087300;28;20465;-73
2023/02/03 10:03:21;;;;;;;1.60;1.20;;;9.50;98.20;;;;;;5073027;28;20651;-73
2023/02/03 10:06:13;;;;;;;1.60;1.20;;;9.40;98.20;;;;;;5078843;28;21012;-73
2023/02/03 10:08:59;;;;;;;1.60;1.20;;;9.40;98.20;;;;;;5081438;28;20472;-73
2023/02/03 10:11:48;;;;;;;1.60;1.10;;;9.40;98.20;;;;;;5073634;28;20605;-73
2023/02/03 10:14:27;;;;;;;1.60;1.20;;;9.40;98.20;;;;;;5070615;28;21006;-72
2023/02/03 10:17:06;;;;;;;1.60;1.10;;;9.40;98.20;;;;;;5065947;28;20493;-72
2023/02/03 10:19:44;;;;;;;1.60;1.10;;;9.40;98.20;;;;;;5084969;28;20460;-73
2023/02/03 10:22:17;;;;;;;1.60;1.10;;;9.40;98.20;;;;;;5063229;28;20476;-73
2023/02/03 10:24:52;;;;;;;1.60;1.20;;;9.40;98.20;;;;;;5078225;28;20500;-72
2023/02/03 10:27:22;;;;;;;1.60;1.20;;;9.40;98.20;;;;;;5059932;28;21060;-72
2023/02/03 10:29:55;;;;;;;1.60;1.30;;;9.40;98.20;;;;;;5085380;28;20543;-72
2023/02/03 10:32:26;;;;;;;1.60;1.20;;;9.40;98.20;;;;;;5074685;28;20488;-72
2023/02/03 10:34:55;;;;;;;1.60;1.10;;;9.40;98.20;;;;;;5085639;28;20496;-73
2023/02/03 10:37:28;;;;;;;1.60;1.20;;;9.30;98.20;;;;;;5067298;28;21001;-73
2023/02/03 10:40:00;;;;;;;1.60;1.13;;;9.30;98.20;;;;;;5085555;28;20991;-73
2023/02/03 10:43:46;;;;;;;1.60;1.20;;;9.30;98.20;;;;;;5074109;28;21029;-73
2023/02/03 10:45:17;;;;;;;1.97;1.77;;;9.30;98.20;;;;;;5073986;28;21088;-72
2023/02/03 10:47:48;;;;;;;1.60;1.10;;;9.30;98.20;;;;;;5074187;28;20504;-74
2023/02/03 10:50:17;;;;;;;1.60;1.10;;;9.30;98.20;;;;;;5078631;28;20459;-74
2023/02/03 10:52:45;;;;;;;1.60;1.20;;;9.30;98.20;;;;;;5065825;28;20567;-74
2023/02/03 10:55:31;;;;;;;1.60;1.10;;;9.40;98.20;;;;;;5079290;28;21061;-74
2023/02/03 10:58:12;;;;;;;1.60;1.20;;;9.40;98.20;;;;;;5064740;28;21080;-74
2023/02/03 11:00:39;;;;;;;1.60;1.20;;;9.40;98.20;;;;;;5083961;28;20449;-74
2023/02/03 11:03:17;;;;;;;1.60;1.10;;;9.40;98.20;;;;;;5060657;28;20477;-74
2023/02/03 11:05:44;;;;;;;1.60;1.20;;;9.40;98.20;;;;;;5082890;28;20552;-73
2023/02/03 11:08:15;;;;;;;1.70;1.30;;;9.40;98.20;;;;;;5064987;28;20484;-74
2023/02/03 11:10:47;;;;;;;1.60;1.10;;;9.40;98.20;;;;;;5086365;28;20457;-74
2023/02/03 11:13:19;;;;;;;1.60;1.20;;;9.50;98.20;;;;;;5057473;28;20533;-73
2023/02/03 11:15:59;;;;;;;1.60;1.27;;;9.50;98.20;;;;;;5084827;28;20477;-72
2023/02/03 11:18:46;;;;;;;1.60;1.23;;;9.50;98.20;;;;;;5051219;28;20635;-72
2023/02/03 11:21:16;;;;;;;1.70;1.53;;;9.50;98.20;;;;;;5065237;28;20477;-73
2023/02/03 11:23:54;;;;;;;1.60;1.27;;;9.60;98.20;;;;;;5083495;28;20459;-74
2023/02/03 11:26:27;;;;;;;1.60;1.10;;;9.60;98.20;;;;;;5064836;28;20538;-73
2023/02/03 11:28:58;;;;;;;1.60;1.10;;;9.70;98.20;;;;;;5076693;28;20457;-73
2023/02/03 11:31:28;;;;;;;1.70;1.20;;;9.70;98.20;;;;;;5075061;28;20518;-73
2023/02/03 11:34:00;;;;;;;1.60;1.10;;;9.70;98.20;;;;;;5081077;28;20573;-73
2023/02/03 11:36:29;;;;;;;1.63;1.20;;;9.70;98.20;;;;;;5077186;28;20909;-72
2023/02/03 11:39:18;;;;;;;1.60;1.23;;;9.80;98.20;;;;;;5088805;28;20546;-72
2023/02/03 11:41:48;;;;;;;1.60;1.10;;;9.80;98.20;;;;;;5064968;28;20486;-72
2023/02/03 11:44:22;;;;;;;1.60;1.20;;;9.80;98.20;;;;;;5089547;28;20467;-73
2023/02/03 11:46:53;;;;;;;1.60;1.10;;;9.80;98.20;;;;;;5076949;28;20476;-72
2023/02/03 11:49:42;;;;;;;1.60;1.10;;;9.80;98.20;;;;;;5089553;28;20453;-72
2023/02/03 11:52:28;;;;;;;1.60;1.20;;;9.80;98.20;;;;;;5070823;28;20492;-73
2023/02/03 11:55:03;;;;;;;1.60;1.10;;;9.80;98.20;;;;;;5081220;28;20468;-73
2023/02/03 11:57:44;;;;;;;1.60;1.10;;;9.80;98.20;;;;;;5070315;28;20563;-72
2023/02/03 12:00:25;;;;;;;1.60;1.30;;;9.80;98.20;;;;;;5080811;28;20488;-72
2023/02/03 12:03:14;;;;;;;1.60;1.23;;;9.80;98.20;;;;;;5066626;28;21051;-72
2023/02/03 12:06:04;;;;;;;1.60;1.10;;;9.80;98.20;;;;;;5086123;28;20514;-72
2023/02/03 12:08:46;;;;;;;1.60;1.10;;;9.80;98.20;;;;;;5055648;28;20468;-73
2023/02/03 12:11:25;;;;;;;1.60;1.10;;;9.80;98.20;;;;;;5070007;28;20495;-72
2023/02/03 12:14:26;;;;;;;1.60;1.20;;;9.80;98.20;;;;;;5081463;28;20464;-73
2023/02/03 12:17:17;;;;;;;2.10;1.90;;;9.80;98.20;;;;;;5060019;28;20489;-72
2023/02/03 12:20:02;;;;;;;1.63;1.30;;;9.80;98.20;;;;;;5077648;28;20457;-72
2023/02/03 12:22:40;;;;;;;1.60;1.20;;;9.80;98.20;;;;;;5061863;28;20496;-72
2023/02/03 12:25:24;;;;;;;1.60;1.20;;;9.80;98.20;;;;;;5077539;28;20472;-73
2023/02/03 12:28:02;;;;;;;1.60;1.10;;;9.80;98.20;;;;;;5064290;28;20485;-73
2023/02/03 12:30:35;;;;;;;1.60;1.20;;;9.80;98.20;;;;;;5074425;28;20469;-73
2023/02/03 12:33:11;;;;;;;1.60;1.10;;;9.80;98.20;;;;;;5062640;28;20620;-72
2023/02/03 12:35:44;;;;;;;1.60;1.07;;;9.80;98.20;;;;;;5075949;28;20547;-73
2023/02/03 12:38:17;;;;;;;1.60;1.10;;;9.80;98.20;;;;;;5061705;28;20622;-73
2023/02/03 12:40:50;;;;;;;1.60;1.20;;;9.80;98.20;;;;;;5075228;28;20468;-73
2023/02/03 12:43:28;;;;;;;1.60;1.10;;;9.90;98.20;;;;;;5046532;28;20858;-73
2023/02/03 12:46:03;;;;;;;1.60;1.10;;;9.80;98.20;;;;;;5060332;28;20541;-73
2023/02/03 12:48:40;;;;;;;1.60;1.10;;;9.90;98.20;;;;;;5070888;28;20464;-73
2023/02/03 12:51:13;;;;;;;1.60;1.13;;;9.90;98.20;;;;;;5062468;28;20485;-73
2023/02/03 12:53:48;;;;;;;1.60;1.10;;;9.90;98.20;;;;;;5077111;28;20456;-73
2023/02/03 12:56:22;;;;;;;1.70;1.20;;;9.90;98.20;;;;;;5061104;28;20598;-72
2023/02/03 12:58:56;;;;;;;1.60;1.13;;;9.90;98.20;;;;;;5071057;28;20488;-73
2023/02/03 13:01:31;;;;;;;1.60;1.10;;;9.90;98.20;;;;;;5061205;28;20485;-73
2023/02/03 13:04:06;;;;;;;1.60;1.20;;;9.90;98.20;;;;;;5069908;28;20560;-71
2023/02/03 13:06:43;;;;;;;1.60;1.20;;;9.90;98.20;;;;;;5060081;28;20469;-72
2023/02/03 13:09:24;;;;;;;1.60;1.10;;;9.90;98.20;;;;;;5072698;28;20468;-72
2023/02/03 13:11:58;;;;;;;1.60;1.27;;;9.90;98.20;;;;;;5058838;28;20468;-72
2023/02/03 13:14:36;;;;;;;1.60;1.10;;;9.90;98.20;;;;;;5068917;28;20473;-71
2023/02/03 13:17:11;;;;;;;1.60;1.20;;;9.90;98.20;;;;;;5065056;28;20469;-72
2023/02/03 13:19:45;;;;;;;1.60;1.20;;;9.90;98.20;;;;;;5073761;28;20477;-72
2023/02/03 13:22:13;;;;;;;1.60;1.13;;;10.00;98.20;;;;;;5060347;28;20488;-72
2023/02/03 13:24:44;;;;;;;1.60;1.10;;;10.00;98.20;;;;;;5077251;28;20854;-71
2023/02/03 13:27:37;;;;;;;1.60;1.10;;;10.00;98.20;;;;;;5065702;28;21093;-72